PWSweather.com
Personal Weather Stations
Station Observations
ANTHEMNP
Anthem North Parkside, Anthem, AZ 85086

Anthem North ParksideAnthem, AZ 85086

Lat: 33.876464, Lon: -112.13861199999997

Elevation: 1930

Station Type: Davis Vantage Vue with Pro 2 console

http://www.azjerry.com/ANPW/wxindex.php

High Low Average
Temperature 94.6°F34.8°C 76.0°F24.4°C 85.4°F29.7°C
Dew Point 68.0°F20.0°C 51.0°F10.6°C 59.8°F15.4°C
Winds 5.1 mph 8.2 kmh Calm Calm 2.0 mph S3.2 kmh S
Wind Gusts 12.0 mph19.3 kmh -- 5.0 mph8.0 kmh
Humidity 69% 23% 44%
Pressure 29.89 in1012.2 mb 29.74 in1007.1 mb -
Precipitation 0.00 in0.0 mm - -
Hour Temp Dew Point Humidity Winds Wind Gusts Pressure Precip Precip Rate Daily Precip Total
12:00 AM 82.9°F28.3°C 58.0°F14.4°C 43% 1.1 mph SE1.8 kmh SE 3.0 mph4.8 kmh 29.76 in1007.8 mb 0.00 in0.0 mm 0.00 in0.0 mm 0.00 in0.0 mm
12:10 AM 83.2°F28.4°C 59.0°F15.0°C 44% 1.1 mph SSW1.8 kmh SSW 3.0 mph4.8 kmh 29.76 in1007.8 mb 0.00 in0.0 mm 0.00 in0.0 mm 0.00 in0.0 mm
12:20 AM 83.3°F28.5°C 60.0°F15.6°C 45% 0.9 mph S1.4 kmh S 4.0 mph6.4 kmh 29.77 in1008.1 mb 0.00 in0.0 mm 0.00 in0.0 mm 0.00 in0.0 mm
12:30 AM 83.4°F28.6°C 60.0°F15.6°C 45% 1.8 mph SSW2.9 kmh SSW 4.0 mph6.4 kmh 29.77 in1008.1 mb 0.00 in0.0 mm 0.00 in0.0 mm 0.00 in0.0 mm
12:40 AM 83.3°F28.5°C 60.0°F15.6°C 46% 2.4 mph SW3.9 kmh SW 6.0 mph9.7 kmh 29.77 in1008.1 mb 0.00 in0.0 mm 0.00 in0.0 mm 0.00 in0.0 mm
12:50 AM 82.9°F28.3°C 61.0°F16.1°C 47% 2.9 mph SW4.7 kmh SW 7.0 mph11.3 kmh 29.77 in1008.1 mb 0.00 in0.0 mm 0.00 in0.0 mm 0.00 in0.0 mm
01:00 AM 82.6°F28.1°C 61.0°F16.1°C 48% 3.7 mph SW6.0 kmh SW 8.0 mph12.9 kmh 29.78 in1008.5 mb 0.00 in0.0 mm 0.00 in0.0 mm 0.00 in0.0 mm
01:10 AM 82.5°F28.1°C 61.0°F16.1°C 48% 3.6 mph SW5.8 kmh SW 7.0 mph11.3 kmh 29.78 in1008.5 mb 0.00 in0.0 mm 0.00 in0.0 mm 0.00 in0.0 mm
01:20 AM 82.2°F27.9°C 61.0°F16.1°C 48% 4.3 mph SW6.9 kmh SW 10.0 mph16.1 kmh 29.78 in1008.5 mb 0.00 in0.0 mm 0.00 in0.0 mm 0.00 in0.0 mm
01:30 AM 82.0°F27.8°C 60.0°F15.6°C 48% 3.5 mph WSW5.6 kmh WSW 7.0 mph11.3 kmh 29.78 in1008.5 mb 0.00 in0.0 mm 0.00 in0.0 mm 0.00 in0.0 mm
01:40 AM 81.7°F27.6°C 61.0°F16.1°C 49% 3.1 mph SSE5.0 kmh SSE 7.0 mph11.3 kmh 29.79 in1008.8 mb 0.00 in0.0 mm 0.00 in0.0 mm 0.00 in0.0 mm
01:50 AM 81.3°F27.4°C 60.0°F15.6°C 49% 1.8 mph SW2.9 kmh SW 4.0 mph6.4 kmh 29.79 in1008.8 mb 0.00 in0.0 mm 0.00 in0.0 mm 0.00 in0.0 mm
02:00 AM 81.0°F27.2°C 61.0°F16.1°C 50% 1.4 mph SW2.3 kmh SW 5.0 mph8.0 kmh 29.79 in1008.8 mb 0.00 in0.0 mm 0.00 in0.0 mm 0.00 in0.0 mm
02:10 AM 80.7°F27.1°C 61.0°F16.1°C 51% 1.0 mph S1.6 kmh S 4.0 mph6.4 kmh 29.79 in1008.8 mb 0.00 in0.0 mm 0.00 in0.0 mm 0.00 in0.0 mm
02:20 AM 80.0°F26.7°C 61.0°F16.1°C 52% Calm Calm -- 29.79 in1008.8 mb 0.00 in0.0 mm 0.00 in0.0 mm 0.00 in0.0 mm
02:30 AM 79.3°F26.3°C 61.0°F16.1°C 53% Calm Calm 1.0 mph1.6 kmh 29.79 in1008.8 mb 0.00 in0.0 mm 0.00 in0.0 mm 0.00 in0.0 mm
02:40 AM 79.3°F26.3°C 61.0°F16.1°C 53% 0.1 mph SSW0.2 kmh SSW 1.0 mph1.6 kmh 29.79 in1008.8 mb 0.00 in0.0 mm 0.00 in0.0 mm 0.00 in0.0 mm
02:50 AM 79.1°F26.2°C 61.0°F16.1°C 54% 0.2 mph SSE0.3 kmh SSE 2.0 mph3.2 kmh 29.79 in1008.8 mb 0.00 in0.0 mm 0.00 in0.0 mm 0.00 in0.0 mm
03:00 AM 78.9°F26.1°C 61.0°F16.1°C 54% 0.8 mph SE1.3 kmh SE 3.0 mph4.8 kmh 29.79 in1008.8 mb 0.00 in0.0 mm 0.00 in0.0 mm 0.00 in0.0 mm
03:10 AM 78.9°F26.1°C 61.0°F16.1°C 55% 0.9 mph ESE1.4 kmh ESE 3.0 mph4.8 kmh 29.80 in1009.1 mb 0.00 in0.0 mm 0.00 in0.0 mm 0.00 in0.0 mm
03:20 AM 78.9°F26.1°C 61.0°F16.1°C 55% 1.1 mph SSW1.8 kmh SSW 3.0 mph4.8 kmh 29.80 in1009.1 mb 0.00 in0.0 mm 0.00 in0.0 mm 0.00 in0.0 mm
03:30 AM 78.2°F25.7°C 61.0°F16.1°C 55% 0.1 mph SE0.2 kmh SE 1.0 mph1.6 kmh 29.80 in1009.1 mb 0.00 in0.0 mm 0.00 in0.0 mm 0.00 in0.0 mm
03:40 AM 77.4°F25.2°C 61.0°F16.1°C 57% Calm Calm 1.0 mph1.6 kmh 29.81 in1009.5 mb 0.00 in0.0 mm 0.00 in0.0 mm 0.00 in0.0 mm
03:50 AM 77.0°F25.0°C 61.0°F16.1°C 59% 0.1 mph SE0.2 kmh SE 1.0 mph1.6 kmh 29.81 in1009.5 mb 0.00 in0.0 mm 0.00 in0.0 mm 0.00 in0.0 mm
04:00 AM 77.1°F25.1°C 62.0°F16.7°C 60% 0.8 mph SE1.3 kmh SE 2.0 mph3.2 kmh 29.81 in1009.5 mb 0.00 in0.0 mm 0.00 in0.0 mm 0.00 in0.0 mm
04:10 AM 77.2°F25.1°C 62.0°F16.7°C 60% 0.7 mph SE1.1 kmh SE 2.0 mph3.2 kmh 29.82 in1009.8 mb 0.00 in0.0 mm 0.00 in0.0 mm 0.00 in0.0 mm
04:20 AM 76.9°F24.9°C 62.0°F16.7°C 61% 0.1 mph SE0.2 kmh SE 1.0 mph1.6 kmh 29.82 in1009.8 mb 0.00 in0.0 mm 0.00 in0.0 mm 0.00 in0.0 mm
04:30 AM 76.7°F24.8°C 63.0°F17.2°C 62% 0.1 mph SE0.2 kmh SE 1.0 mph1.6 kmh 29.82 in1009.8 mb 0.00 in0.0 mm 0.00 in0.0 mm 0.00 in0.0 mm
04:40 AM 76.5°F24.7°C 63.0°F17.2°C 63% Calm Calm 1.0 mph1.6 kmh 29.83 in1010.2 mb 0.00 in0.0 mm 0.00 in0.0 mm 0.00 in0.0 mm
04:50 AM 76.4°F24.7°C 63.0°F17.2°C 64% Calm Calm 1.0 mph1.6 kmh 29.82 in1009.8 mb 0.00 in0.0 mm 0.00 in0.0 mm 0.00 in0.0 mm
05:00 AM 76.5°F24.7°C 63.0°F17.2°C 64% 0.3 mph SE0.5 kmh SE 2.0 mph3.2 kmh 29.82 in1009.8 mb 0.00 in0.0 mm 0.00 in0.0 mm 0.00 in0.0 mm
05:10 AM 76.4°F24.7°C 63.0°F17.2°C 64% 0.1 mph SSE0.2 kmh SSE 1.0 mph1.6 kmh 29.82 in1009.8 mb 0.00 in0.0 mm 0.00 in0.0 mm 0.00 in0.0 mm
05:20 AM 76.1°F24.5°C 63.0°F17.2°C 65% Calm Calm -- 29.83 in1010.2 mb 0.00 in0.0 mm 0.00 in0.0 mm 0.00 in0.0 mm
05:30 AM 76.3°F24.6°C 64.0°F17.8°C 65% 0.7 mph SSE1.1 kmh SSE 2.0 mph3.2 kmh 29.83 in1010.2 mb 0.00 in0.0 mm 0.00 in0.0 mm 0.00 in0.0 mm
05:40 AM 76.2°F24.6°C 64.0°F17.8°C 66% 0.1 mph SE0.2 kmh SE 1.0 mph1.6 kmh 29.83 in1010.2 mb 0.00 in0.0 mm 0.00 in0.0 mm 0.00 in0.0 mm
05:50 AM 76.3°F24.6°C 64.0°F17.8°C 66% Calm Calm 1.0 mph1.6 kmh 29.84 in1010.5 mb 0.00 in0.0 mm 0.00 in0.0 mm 0.00 in0.0 mm
06:00 AM 76.4°F24.7°C 64.0°F17.8°C 66% Calm Calm 1.0 mph1.6 kmh 29.84 in1010.5 mb 0.00 in0.0 mm 0.00 in0.0 mm 0.00 in0.0 mm
06:10 AM 76.2°F24.6°C 64.0°F17.8°C 66% Calm Calm -- 29.84 in1010.5 mb 0.00 in0.0 mm 0.00 in0.0 mm 0.00 in0.0 mm
06:20 AM 76.0°F24.4°C 64.0°F17.8°C 67% Calm Calm -- 29.85 in1010.8 mb 0.00 in0.0 mm 0.00 in0.0 mm 0.00 in0.0 mm
06:30 AM 76.1°F24.5°C 64.0°F17.8°C 67% Calm Calm 1.0 mph1.6 kmh 29.85 in1010.8 mb 0.00 in0.0 mm 0.00 in0.0 mm 0.00 in0.0 mm
06:40 AM 76.3°F24.6°C 65.0°F18.3°C 67% Calm Calm 1.0 mph1.6 kmh 29.86 in1011.2 mb 0.00 in0.0 mm 0.00 in0.0 mm 0.00 in0.0 mm
06:50 AM 76.3°F24.6°C 65.0°F18.3°C 67% Calm Calm -- 29.86 in1011.2 mb 0.00 in0.0 mm 0.00 in0.0 mm 0.00 in0.0 mm
07:00 AM 76.4°F24.7°C 65.0°F18.3°C 68% 0.2 mph SE0.3 kmh SE 1.0 mph1.6 kmh 29.86 in1011.2 mb 0.00 in0.0 mm 0.00 in0.0 mm 0.00 in0.0 mm
07:10 AM 76.6°F24.8°C 66.0°F18.9°C 69% 0.1 mph SE0.2 kmh SE 1.0 mph1.6 kmh 29.86 in1011.2 mb 0.00 in0.0 mm 0.00 in0.0 mm 0.00 in0.0 mm
07:20 AM 77.3°F25.2°C 66.0°F18.9°C 69% 0.2 mph SE0.3 kmh SE 3.0 mph4.8 kmh 29.86 in1011.2 mb 0.00 in0.0 mm 0.00 in0.0 mm 0.00 in0.0 mm
07:30 AM 77.8°F25.4°C 66.0°F18.9°C 68% 1.0 mph SE1.6 kmh SE 3.0 mph4.8 kmh 29.86 in1011.2 mb 0.00 in0.0 mm 0.00 in0.0 mm 0.00 in0.0 mm
07:40 AM 78.5°F25.8°C 67.0°F19.4°C 67% 0.5 mph NE0.8 kmh NE 3.0 mph4.8 kmh 29.86 in1011.2 mb 0.00 in0.0 mm 0.00 in0.0 mm 0.00 in0.0 mm
07:50 AM 79.7°F26.5°C 67.0°F19.4°C 65% 0.3 mph N0.5 kmh N 2.0 mph3.2 kmh 29.86 in1011.2 mb 0.00 in0.0 mm 0.00 in0.0 mm 0.00 in0.0 mm
08:00 AM 81.7°F27.6°C 67.0°F19.4°C 62% Calm Calm 1.0 mph1.6 kmh 29.87 in1011.5 mb 0.00 in0.0 mm 0.00 in0.0 mm 0.00 in0.0 mm
08:10 AM 83.3°F28.5°C 68.0°F20.0°C 60% 0.6 mph SW1.0 kmh SW 3.0 mph4.8 kmh 29.87 in1011.5 mb 0.00 in0.0 mm 0.00 in0.0 mm 0.00 in0.0 mm
08:20 AM 84.0°F28.9°C 68.0°F20.0°C 59% 0.9 mph NW1.4 kmh NW 4.0 mph6.4 kmh 29.87 in1011.5 mb 0.00 in0.0 mm 0.00 in0.0 mm 0.00 in0.0 mm
08:30 AM 83.6°F28.7°C 68.0°F20.0°C 60% 1.6 mph WNW2.6 kmh WNW 4.0 mph6.4 kmh 29.87 in1011.5 mb 0.00 in0.0 mm 0.00 in0.0 mm 0.00 in0.0 mm
08:40 AM 83.9°F28.8°C 68.0°F20.0°C 59% 1.4 mph WSW2.3 kmh WSW 6.0 mph9.7 kmh 29.87 in1011.5 mb 0.00 in0.0 mm 0.00 in0.0 mm 0.00 in0.0 mm
08:50 AM 82.2°F27.9°C 67.0°F19.4°C 61% 1.3 mph NW2.1 kmh NW 3.0 mph4.8 kmh 29.88 in1011.9 mb 0.00 in0.0 mm 0.00 in0.0 mm 0.00 in0.0 mm
09:00 AM 82.1°F27.8°C 67.0°F19.4°C 61% 0.6 mph NW1.0 kmh NW 2.0 mph3.2 kmh 29.88 in1011.9 mb 0.00 in0.0 mm 0.00 in0.0 mm 0.00 in0.0 mm
09:10 AM 81.8°F27.7°C 67.0°F19.4°C 61% 0.6 mph N1.0 kmh N 2.0 mph3.2 kmh 29.89 in1012.2 mb 0.00 in0.0 mm 0.00 in0.0 mm 0.00 in0.0 mm
09:20 AM 82.3°F27.9°C 67.0°F19.4°C 60% 0.4 mph SE0.6 kmh SE 3.0 mph4.8 kmh 29.89 in1012.2 mb 0.00 in0.0 mm 0.00 in0.0 mm 0.00 in0.0 mm
09:30 AM 84.0°F28.9°C 67.0°F19.4°C 56% 0.7 mph SSW1.1 kmh SSW 3.0 mph4.8 kmh 29.89 in1012.2 mb 0.00 in0.0 mm 0.00 in0.0 mm 0.00 in0.0 mm
09:40 AM 84.8°F29.3°C 66.0°F18.9°C 54% 1.2 mph SSW1.9 kmh SSW 4.0 mph6.4 kmh 29.89 in1012.2 mb 0.00 in0.0 mm 0.00 in0.0 mm 0.00 in0.0 mm
09:50 AM 85.4°F29.7°C 66.0°F18.9°C 52% 1.4 mph SE2.3 kmh SE 4.0 mph6.4 kmh 29.89 in1012.2 mb 0.00 in0.0 mm 0.00 in0.0 mm 0.00 in0.0 mm
10:00 AM 86.4°F30.2°C 66.0°F18.9°C 50% 1.0 mph SW1.6 kmh SW 6.0 mph9.7 kmh 29.89 in1012.2 mb 0.00 in0.0 mm 0.00 in0.0 mm 0.00 in0.0 mm
10:10 AM 86.9°F30.5°C 65.0°F18.3°C 48% 2.2 mph S3.5 kmh S 7.0 mph11.3 kmh 29.89 in1012.2 mb 0.00 in0.0 mm 0.00 in0.0 mm 0.00 in0.0 mm
10:20 AM 86.0°F30.0°C 62.0°F16.7°C 45% 3.7 mph S6.0 kmh S 8.0 mph12.9 kmh 29.89 in1012.2 mb 0.00 in0.0 mm 0.00 in0.0 mm 0.00 in0.0 mm
10:30 AM 85.6°F29.8°C 62.0°F16.7°C 46% 2.4 mph ESE3.9 kmh ESE 5.0 mph8.0 kmh 29.89 in1012.2 mb 0.00 in0.0 mm 0.00 in0.0 mm 0.00 in0.0 mm
10:40 AM 86.6°F30.3°C 63.0°F17.2°C 45% 1.8 mph SW2.9 kmh SW 6.0 mph9.7 kmh 29.89 in1012.2 mb 0.00 in0.0 mm 0.00 in0.0 mm 0.00 in0.0 mm
10:50 AM 88.2°F31.2°C 63.0°F17.2°C 43% 1.5 mph SSW2.4 kmh SSW 7.0 mph11.3 kmh 29.89 in1012.2 mb 0.00 in0.0 mm 0.00 in0.0 mm 0.00 in0.0 mm
11:00 AM 87.8°F31.0°C 63.0°F17.2°C 43% 3.5 mph SW5.6 kmh SW 6.0 mph9.7 kmh 29.88 in1011.9 mb 0.00 in0.0 mm 0.00 in0.0 mm 0.00 in0.0 mm
11:10 AM 86.8°F30.4°C 60.0°F15.6°C 41% 4.0 mph SE6.4 kmh SE 9.0 mph14.5 kmh 29.88 in1011.9 mb 0.00 in0.0 mm 0.00 in0.0 mm 0.00 in0.0 mm
11:20 AM 87.6°F30.9°C 60.0°F15.6°C 39% 3.1 mph S5.0 kmh S 9.0 mph14.5 kmh 29.88 in1011.9 mb 0.00 in0.0 mm 0.00 in0.0 mm 0.00 in0.0 mm
11:30 AM 88.9°F31.6°C 62.0°F16.7°C 40% 3.4 mph SW5.5 kmh SW 8.0 mph12.9 kmh 29.87 in1011.5 mb 0.00 in0.0 mm 0.00 in0.0 mm 0.00 in0.0 mm
11:40 AM 88.7°F31.5°C 61.0°F16.1°C 40% 4.0 mph SSW6.4 kmh SSW 9.0 mph14.5 kmh 29.87 in1011.5 mb 0.00 in0.0 mm 0.00 in0.0 mm 0.00 in0.0 mm
11:50 AM 89.0°F31.7°C 61.0°F16.1°C 39% 1.6 mph SSW2.6 kmh SSW 6.0 mph9.7 kmh 29.87 in1011.5 mb 0.00 in0.0 mm 0.00 in0.0 mm 0.00 in0.0 mm
12:00 PM 90.3°F32.4°C 60.0°F15.6°C 36% 3.4 mph S5.5 kmh S 9.0 mph14.5 kmh 29.87 in1011.5 mb 0.00 in0.0 mm 0.00 in0.0 mm 0.00 in0.0 mm
12:10 PM 90.8°F32.7°C 60.0°F15.6°C 36% 3.1 mph S5.0 kmh S 9.0 mph14.5 kmh 29.86 in1011.2 mb 0.00 in0.0 mm 0.00 in0.0 mm 0.00 in0.0 mm
12:20 PM 90.7°F32.6°C 61.0°F16.1°C 37% 3.2 mph NE5.1 kmh NE 8.0 mph12.9 kmh 29.85 in1010.8 mb 0.00 in0.0 mm 0.00 in0.0 mm 0.00 in0.0 mm
12:30 PM 91.2°F32.9°C 59.0°F15.0°C 34% 2.5 mph SE4.0 kmh SE 9.0 mph14.5 kmh 29.85 in1010.8 mb 0.00 in0.0 mm 0.00 in0.0 mm 0.00 in0.0 mm
12:40 PM 91.2°F32.9°C 57.0°F13.9°C 32% 3.6 mph SW5.8 kmh SW 7.0 mph11.3 kmh 29.85 in1010.8 mb 0.00 in0.0 mm 0.00 in0.0 mm 0.00 in0.0 mm
12:50 PM 92.0°F33.3°C 60.0°F15.6°C 34% 2.3 mph SE3.7 kmh SE 7.0 mph11.3 kmh 29.85 in1010.8 mb 0.00 in0.0 mm 0.00 in0.0 mm 0.00 in0.0 mm
01:00 PM 92.7°F33.7°C 60.0°F15.6°C 34% 2.8 mph NNE4.5 kmh NNE 9.0 mph14.5 kmh 29.84 in1010.5 mb 0.00 in0.0 mm 0.00 in0.0 mm 0.00 in0.0 mm
01:10 PM 92.8°F33.8°C 59.0°F15.0°C 32% 2.1 mph S3.4 kmh S 7.0 mph11.3 kmh 29.84 in1010.5 mb 0.00 in0.0 mm 0.00 in0.0 mm 0.00 in0.0 mm
01:20 PM 92.3°F33.5°C 58.0°F14.4°C 31% 4.1 mph SW6.6 kmh SW 12.0 mph19.3 kmh 29.84 in1010.5 mb 0.00 in0.0 mm 0.00 in0.0 mm 0.00 in0.0 mm
01:30 PM 91.4°F33.0°C 58.0°F14.4°C 33% 2.9 mph SW4.7 kmh SW 6.0 mph9.7 kmh 29.83 in1010.2 mb 0.00 in0.0 mm 0.00 in0.0 mm 0.00 in0.0 mm
01:40 PM 91.4°F33.0°C 56.0°F13.3°C 30% 4.8 mph SSW7.7 kmh SSW 9.0 mph14.5 kmh 29.83 in1010.2 mb 0.00 in0.0 mm 0.00 in0.0 mm 0.00 in0.0 mm
01:50 PM 92.5°F33.6°C 57.0°F13.9°C 30% 2.7 mph SW4.3 kmh SW 7.0 mph11.3 kmh 29.82 in1009.8 mb 0.00 in0.0 mm 0.00 in0.0 mm 0.00 in0.0 mm
02:00 PM 92.7°F33.7°C 55.0°F12.8°C 28% 5.0 mph SSE8.0 kmh SSE 11.0 mph17.7 kmh 29.81 in1009.5 mb 0.00 in0.0 mm 0.00 in0.0 mm 0.00 in0.0 mm
02:10 PM 92.8°F33.8°C 57.0°F13.9°C 30% 3.7 mph SSW6.0 kmh SSW 8.0 mph12.9 kmh 29.81 in1009.5 mb 0.00 in0.0 mm 0.00 in0.0 mm 0.00 in0.0 mm
02:20 PM 93.9°F34.4°C 57.0°F13.9°C 29% 2.2 mph SE3.5 kmh SE 6.0 mph9.7 kmh 29.80 in1009.1 mb 0.00 in0.0 mm 0.00 in0.0 mm 0.00 in0.0 mm
02:30 PM 94.4°F34.7°C 56.0°F13.3°C 27% 4.2 mph S6.8 kmh S 9.0 mph14.5 kmh 29.80 in1009.1 mb 0.00 in0.0 mm 0.00 in0.0 mm 0.00 in0.0 mm
02:40 PM 93.0°F33.9°C 53.0°F11.7°C 26% 5.1 mph SW8.2 kmh SW 10.0 mph16.1 kmh 29.80 in1009.1 mb 0.00 in0.0 mm 0.00 in0.0 mm 0.00 in0.0 mm
02:50 PM 93.5°F34.2°C 53.0°F11.7°C 25% 3.1 mph SW5.0 kmh SW 10.0 mph16.1 kmh 29.79 in1008.8 mb 0.00 in0.0 mm 0.00 in0.0 mm 0.00 in0.0 mm
03:00 PM 94.6°F34.8°C 54.0°F12.2°C 25% 2.4 mph N3.9 kmh N 7.0 mph11.3 kmh 29.79 in1008.8 mb 0.00 in0.0 mm 0.00 in0.0 mm 0.00 in0.0 mm
03:10 PM 93.9°F34.4°C 54.0°F12.2°C 26% 2.4 mph SSW3.9 kmh SSW 8.0 mph12.9 kmh 29.79 in1008.8 mb 0.00 in0.0 mm 0.00 in0.0 mm 0.00 in0.0 mm
03:20 PM 93.5°F34.2°C 55.0°F12.8°C 27% 3.7 mph S6.0 kmh S 8.0 mph12.9 kmh 29.78 in1008.5 mb 0.00 in0.0 mm 0.00 in0.0 mm 0.00 in0.0 mm
03:30 PM 93.3°F34.1°C 54.0°F12.2°C 26% 3.9 mph SSW6.3 kmh SSW 10.0 mph16.1 kmh 29.78 in1008.5 mb 0.00 in0.0 mm 0.00 in0.0 mm 0.00 in0.0 mm
03:40 PM 93.3°F34.1°C 54.0°F12.2°C 26% 3.3 mph SW5.3 kmh SW 11.0 mph17.7 kmh 29.78 in1008.5 mb 0.00 in0.0 mm 0.00 in0.0 mm 0.00 in0.0 mm
03:50 PM 94.1°F34.5°C 51.0°F10.6°C 23% 3.1 mph SSW5.0 kmh SSW 10.0 mph16.1 kmh 29.77 in1008.1 mb 0.00 in0.0 mm 0.00 in0.0 mm 0.00 in0.0 mm
04:00 PM 93.5°F34.2°C 54.0°F12.2°C 26% 4.5 mph SW7.2 kmh SW 11.0 mph17.7 kmh 29.77 in1008.1 mb 0.00 in0.0 mm 0.00 in0.0 mm 0.00 in0.0 mm
04:10 PM 94.0°F34.4°C 53.0°F11.7°C 25% 3.0 mph SW4.8 kmh SW 9.0 mph14.5 kmh 29.77 in1008.1 mb 0.00 in0.0 mm 0.00 in0.0 mm 0.00 in0.0 mm
04:20 PM 93.8°F34.3°C 54.0°F12.2°C 26% 3.2 mph SE5.1 kmh SE 7.0 mph11.3 kmh 29.76 in1007.8 mb 0.00 in0.0 mm 0.00 in0.0 mm 0.00 in0.0 mm
04:30 PM 94.0°F34.4°C 53.0°F11.7°C 25% 2.9 mph SSW4.7 kmh SSW 8.0 mph12.9 kmh 29.76 in1007.8 mb 0.00 in0.0 mm 0.00 in0.0 mm 0.00 in0.0 mm
04:40 PM 93.5°F34.2°C 53.0°F11.7°C 25% 3.3 mph SSE5.3 kmh SSE 12.0 mph19.3 kmh 29.76 in1007.8 mb 0.00 in0.0 mm 0.00 in0.0 mm 0.00 in0.0 mm
04:50 PM 93.5°F34.2°C 53.0°F11.7°C 25% 2.1 mph W3.4 kmh W 5.0 mph8.0 kmh 29.75 in1007.5 mb 0.00 in0.0 mm 0.00 in0.0 mm 0.00 in0.0 mm
05:00 PM 93.1°F33.9°C 54.0°F12.2°C 27% 1.7 mph WSW2.7 kmh WSW 6.0 mph9.7 kmh 29.75 in1007.5 mb 0.00 in0.0 mm 0.00 in0.0 mm 0.00 in0.0 mm
05:10 PM 93.2°F34.0°C 55.0°F12.8°C 27% 2.6 mph W4.2 kmh W 9.0 mph14.5 kmh 29.75 in1007.5 mb 0.00 in0.0 mm 0.00 in0.0 mm 0.00 in0.0 mm
05:20 PM 92.9°F33.8°C 55.0°F12.8°C 28% 3.6 mph SW5.8 kmh SW 9.0 mph14.5 kmh 29.75 in1007.5 mb 0.00 in0.0 mm 0.00 in0.0 mm 0.00 in0.0 mm
05:30 PM 92.5°F33.6°C 55.0°F12.8°C 28% 3.9 mph SSW6.3 kmh SSW 11.0 mph17.7 kmh 29.75 in1007.5 mb 0.00 in0.0 mm 0.00 in0.0 mm 0.00 in0.0 mm
05:40 PM 92.0°F33.3°C 55.0°F12.8°C 29% 4.6 mph SW7.4 kmh SW 10.0 mph16.1 kmh 29.75 in1007.5 mb 0.00 in0.0 mm 0.00 in0.0 mm 0.00 in0.0 mm
05:50 PM 92.2°F33.4°C 56.0°F13.3°C 29% 3.1 mph SSE5.0 kmh SSE 7.0 mph11.3 kmh 29.75 in1007.5 mb 0.00 in0.0 mm 0.00 in0.0 mm 0.00 in0.0 mm
06:00 PM 92.0°F33.3°C 56.0°F13.3°C 30% 2.2 mph SW3.5 kmh SW 6.0 mph9.7 kmh 29.75 in1007.5 mb 0.00 in0.0 mm 0.00 in0.0 mm 0.00 in0.0 mm
06:10 PM 91.4°F33.0°C 55.0°F12.8°C 29% 3.2 mph SW5.1 kmh SW 7.0 mph11.3 kmh 29.75 in1007.5 mb 0.00 in0.0 mm 0.00 in0.0 mm 0.00 in0.0 mm
06:20 PM 91.4°F33.0°C 55.0°F12.8°C 29% 1.3 mph SW2.1 kmh SW 4.0 mph6.4 kmh 29.75 in1007.5 mb 0.00 in0.0 mm 0.00 in0.0 mm 0.00 in0.0 mm
06:30 PM 91.2°F32.9°C 56.0°F13.3°C 30% 2.1 mph SW3.4 kmh SW 7.0 mph11.3 kmh 29.75 in1007.5 mb 0.00 in0.0 mm 0.00 in0.0 mm 0.00 in0.0 mm
06:40 PM 90.8°F32.7°C 54.0°F12.2°C 29% 2.8 mph SSW4.5 kmh SSW 6.0 mph9.7 kmh 29.75 in1007.5 mb 0.00 in0.0 mm 0.00 in0.0 mm 0.00 in0.0 mm
06:50 PM 90.5°F32.5°C 55.0°F12.8°C 30% 1.9 mph SE3.1 kmh SE 5.0 mph8.0 kmh 29.75 in1007.5 mb 0.00 in0.0 mm 0.00 in0.0 mm 0.00 in0.0 mm
07:00 PM 90.2°F32.3°C 55.0°F12.8°C 30% 1.4 mph SW2.3 kmh SW 4.0 mph6.4 kmh 29.75 in1007.5 mb 0.00 in0.0 mm 0.00 in0.0 mm 0.00 in0.0 mm
07:10 PM 90.0°F32.2°C 56.0°F13.3°C 31% 1.3 mph SSE2.1 kmh SSE 3.0 mph4.8 kmh 29.74 in1007.1 mb 0.00 in0.0 mm 0.00 in0.0 mm 0.00 in0.0 mm
07:20 PM 89.6°F32.0°C 55.0°F12.8°C 31% 0.5 mph SSE0.8 kmh SSE 2.0 mph3.2 kmh 29.74 in1007.1 mb 0.00 in0.0 mm 0.00 in0.0 mm 0.00 in0.0 mm
07:30 PM 89.2°F31.8°C 56.0°F13.3°C 32% 0.3 mph ESE0.5 kmh ESE 2.0 mph3.2 kmh 29.75 in1007.5 mb 0.00 in0.0 mm 0.00 in0.0 mm 0.00 in0.0 mm
07:40 PM 88.7°F31.5°C 55.0°F12.8°C 32% 0.1 mph SE0.2 kmh SE 2.0 mph3.2 kmh 29.74 in1007.1 mb 0.00 in0.0 mm 0.00 in0.0 mm 0.00 in0.0 mm
07:50 PM 88.3°F31.3°C 56.0°F13.3°C 33% Calm Calm 1.0 mph1.6 kmh 29.74 in1007.1 mb 0.00 in0.0 mm 0.00 in0.0 mm 0.00 in0.0 mm
08:00 PM 88.0°F31.1°C 55.0°F12.8°C 33% Calm Calm 1.0 mph1.6 kmh 29.75 in1007.5 mb 0.00 in0.0 mm 0.00 in0.0 mm 0.00 in0.0 mm
08:10 PM 87.2°F30.7°C 56.0°F13.3°C 34% Calm Calm -- 29.75 in1007.5 mb 0.00 in0.0 mm 0.00 in0.0 mm 0.00 in0.0 mm
08:20 PM 86.4°F30.2°C 56.0°F13.3°C 35% Calm Calm -- 29.75 in1007.5 mb 0.00 in0.0 mm 0.00 in0.0 mm 0.00 in0.0 mm
08:30 PM 85.9°F29.9°C 55.0°F12.8°C 35% Calm Calm -- 29.75 in1007.5 mb 0.00 in0.0 mm 0.00 in0.0 mm 0.00 in0.0 mm
08:40 PM 85.2°F29.6°C 55.0°F12.8°C 36% Calm Calm -- 29.75 in1007.5 mb 0.00 in0.0 mm 0.00 in0.0 mm 0.00 in0.0 mm
08:50 PM 84.9°F29.4°C 56.0°F13.3°C 37% Calm Calm 1.0 mph1.6 kmh 29.75 in1007.5 mb 0.00 in0.0 mm 0.00 in0.0 mm 0.00 in0.0 mm
09:00 PM 84.9°F29.4°C 55.0°F12.8°C 36% Calm Calm 1.0 mph1.6 kmh 29.75 in1007.5 mb 0.00 in0.0 mm 0.00 in0.0 mm 0.00 in0.0 mm
09:10 PM 84.7°F29.3°C 55.0°F12.8°C 36% Calm Calm 1.0 mph1.6 kmh 29.75 in1007.5 mb 0.00 in0.0 mm 0.00 in0.0 mm 0.00 in0.0 mm
09:20 PM 84.6°F29.2°C 56.0°F13.3°C 37% Calm Calm -- 29.75 in1007.5 mb 0.00 in0.0 mm 0.00 in0.0 mm 0.00 in0.0 mm
09:30 PM 84.3°F29.1°C 55.0°F12.8°C 37% Calm Calm 1.0 mph1.6 kmh 29.75 in1007.5 mb 0.00 in0.0 mm 0.00 in0.0 mm 0.00 in0.0 mm
09:40 PM 84.0°F28.9°C 55.0°F12.8°C 37% Calm Calm 1.0 mph1.6 kmh 29.75 in1007.5 mb 0.00 in0.0 mm 0.00 in0.0 mm 0.00 in0.0 mm
09:50 PM 84.2°F29.0°C 55.0°F12.8°C 37% Calm Calm 1.0 mph1.6 kmh 29.75 in1007.5 mb 0.00 in0.0 mm 0.00 in0.0 mm 0.00 in0.0 mm
10:00 PM 84.6°F29.2°C 56.0°F13.3°C 37% Calm Calm 1.0 mph1.6 kmh 29.76 in1007.8 mb 0.00 in0.0 mm 0.00 in0.0 mm 0.00 in0.0 mm
10:10 PM 84.9°F29.4°C 56.0°F13.3°C 37% 0.1 mph SE0.2 kmh SE 1.0 mph1.6 kmh 29.76 in1007.8 mb 0.00 in0.0 mm 0.00 in0.0 mm 0.00 in0.0 mm
10:20 PM 85.0°F29.4°C 56.0°F13.3°C 37% 0.7 mph SSE1.1 kmh SSE 4.0 mph6.4 kmh 29.77 in1008.1 mb 0.00 in0.0 mm 0.00 in0.0 mm 0.00 in0.0 mm
10:30 PM 84.9°F29.4°C 57.0°F13.9°C 38% 0.9 mph SW1.4 kmh SW 4.0 mph6.4 kmh 29.77 in1008.1 mb 0.00 in0.0 mm 0.00 in0.0 mm 0.00 in0.0 mm
10:40 PM 85.1°F29.5°C 59.0°F15.0°C 42% 0.9 mph WSW1.4 kmh WSW 5.0 mph8.0 kmh 29.77 in1008.1 mb 0.00 in0.0 mm 0.00 in0.0 mm 0.00 in0.0 mm
10:50 PM 85.1°F29.5°C 62.0°F16.7°C 46% 1.4 mph SW2.3 kmh SW 7.0 mph11.3 kmh 29.78 in1008.5 mb 0.00 in0.0 mm 0.00 in0.0 mm 0.00 in0.0 mm
11:00 PM 85.1°F29.5°C 63.0°F17.2°C 47% 2.1 mph SW3.4 kmh SW 7.0 mph11.3 kmh 29.78 in1008.5 mb 0.00 in0.0 mm 0.00 in0.0 mm 0.00 in0.0 mm
11:10 PM 85.0°F29.4°C 63.0°F17.2°C 47% 1.7 mph SW2.7 kmh SW 5.0 mph8.0 kmh 29.78 in1008.5 mb 0.00 in0.0 mm 0.00 in0.0 mm 0.00 in0.0 mm
11:20 PM 84.7°F29.3°C 63.0°F17.2°C 48% 2.0 mph SW3.2 kmh SW 5.0 mph8.0 kmh 29.78 in1008.5 mb 0.00 in0.0 mm 0.00 in0.0 mm 0.00 in0.0 mm
11:30 PM 84.6°F29.2°C 63.0°F17.2°C 49% 3.2 mph WSW5.1 kmh WSW 8.0 mph12.9 kmh 29.78 in1008.5 mb 0.00 in0.0 mm 0.00 in0.0 mm 0.00 in0.0 mm
11:40 PM 84.4°F29.1°C 64.0°F17.8°C 50% 2.4 mph SW3.9 kmh SW 7.0 mph11.3 kmh 29.78 in1008.5 mb 0.00 in0.0 mm 0.00 in0.0 mm 0.00 in0.0 mm
11:50 PM 84.2°F29.0°C 64.0°F17.8°C 50% 2.7 mph S4.3 kmh S 6.0 mph9.7 kmh 29.78 in1008.5 mb 0.00 in0.0 mm 0.00 in0.0 mm 0.00 in0.0 mm